Skip Navigation LinksHome page > Weather > Current weather Skip Navigation Links

Current Weather

Juliana Apt, St Maarten, Netherlands Antilles

For information only: do not use for flight planning or navigation.
Latest weather
Observation time Friday, January 21, 2022 4:00 PM AST
Local time Friday, January 21, 2022 4:45 PM AST
Flight conditions Visual Meteorological Conditions
Winds
Wind direction Northeast (50°)
Wind speed 15 mph
Visibility 6.2 mi.
Sky condition
Ceiling unlimited
Cloud layer few clouds 2,000 ft.
Temperature 82°F
Dewpoint 64°F
Altimeter 30.03 in.Hg
Derived measurements
Relative humidity 55%
Heat index 84°F
Density altitude 1682 ft.
Remarks
No significant changes expected in the next two hours.
METAR TNCM 212000Z 05013KT 9999 FEW020 28/18 Q1017 NOSIG

Settings

Location code

InnerDrive.Weather 4.0.6770.0 Release CLR 4.0.30319.42000
Copyright ©2018 Inner Drive Technology. All rights reserved. Portions Copyright ©1986-2018 David Braverman.

Find weather

Site navigation


Skip Navigation Links

Place info

Page info

PayPal - The safer, easier way to pay online!

Return home.

Copyright ©2022 Inner Drive Technology. Purveyors of fine, hand-crafted computer software. Page printed 2022-01-21T20:45:21 UTC.